Time;durP1;ratioP1;P1;durP2;ratioP2;P2;SDS_P1;SDS_P2;PMS_P1;PMS_P2;Temp;Humidity;BMP_temperature;BMP_pressure;BME280_temperature;BME280_humidity;BME280_pressure;Samples;Min_cycle;Max_cycle;Signal;HPM_P1;HPM_P2
2023/06/27 00:01:11;;;;;;;;;3.75;3.00;;;;;19.85;60.98;101973.41;5051463;28;9625;-65
2023/06/27 00:03:38;;;;;;;;;2.00;2.00;;;;;19.85;60.97;101970.69;5029371;28;8842;-65
2023/06/27 00:06:05;;;;;;;;;3.50;3.50;;;;;19.84;61.15;101979.94;5040079;28;8853;-64
2023/06/27 00:08:32;;;;;;;;;4.75;3.50;;;;;19.83;61.24;101981.00;5049962;28;8846;-65
2023/06/27 00:10:58;;;;;;;;;5.25;3.25;;;;;19.82;61.18;101974.72;5064067;28;8820;-66
2023/06/27 00:13:25;;;;;;;;;3.50;2.00;;;;;19.83;61.22;101984.59;5046279;28;8821;-66
2023/06/27 00:15:54;;;;;;;;;2.00;1.75;;;;;19.84;61.11;101985.41;5023627;28;8848;-63
2023/06/27 00:18:22;;;;;;;;;1.25;1.25;;;;;19.80;61.27;101982.28;5036400;28;8865;-65
2023/06/27 00:20:49;;;;;;;;;2.75;2.75;;;;;19.80;61.35;101976.00;5069710;28;8849;-66
2023/06/27 00:23:24;;;;;;;;;3.00;3.00;;;;;19.81;61.17;101974.94;5048147;28;9649;-65
2023/06/27 00:41:47;;;;;;;;;2.00;2.00;;;;;19.90;61.11;101959.91;5095900;27;13389;-67
2023/06/27 00:44:13;;;;;;;;;2.25;1.75;;;;;19.94;60.67;101966.59;5064345;28;8968;-69
2023/06/27 00:46:41;;;;;;;;;3.00;2.00;;;;;19.94;60.49;101952.94;5065150;28;8849;-68
2023/06/27 00:49:10;;;;;;;;;4.00;4.00;;;;;19.92;60.64;101955.03;5052312;28;9565;-67
2023/06/27 00:51:39;;;;;;;;;3.25;2.00;;;;;19.88;60.85;101956.56;5060572;28;8854;-67
2023/06/27 00:54:06;;;;;;;;;2.00;2.00;;;;;19.86;60.66;101958.72;5059197;28;8826;-67
2023/06/27 00:56:34;;;;;;;;;2.75;2.75;;;;;19.82;61.01;101957.50;5056147;28;8829;-67
2023/06/27 00:59:02;;;;;;;;;3.00;2.00;;;;;19.78;61.04;101959.00;5059286;28;8848;-68
2023/06/27 01:01:29;;;;;;;;;4.00;2.00;;;;;19.74;61.05;101956.72;5054615;28;8856;-67
2023/06/27 01:03:55;;;;;;;;;0.75;0.75;;;;;19.71;61.38;101953.63;5058306;28;8829;-66
2023/06/27 01:06:33;;;;;;;;;2.00;2.00;;;;;19.68;61.45;101952.16;5059285;28;8810;-67
2023/06/27 01:09:05;;;;;;;;;2.00;2.00;;;;;19.65;61.36;101958.09;5066883;28;8846;-67
2023/06/27 01:11:39;;;;;;;;;1.75;1.75;;;;;19.64;61.52;101958.31;5051820;28;8832;-67
2023/06/27 01:14:08;;;;;;;;;2.25;1.00;;;;;19.63;61.71;101964.84;5062034;28;8840;-66
2023/06/27 01:16:35;;;;;;;;;1.00;1.00;;;;;19.59;61.79;101958.13;5064490;28;8802;-68
2023/06/27 01:19:07;;;;;;;;;3.50;1.25;;;;;19.54;62.07;101958.81;5064727;28;8960;-66
2023/06/27 01:21:36;;;;;;;;;1.75;1.75;;;;;19.52;62.01;101969.13;5066143;28;9258;-67
2023/06/27 01:24:06;;;;;;;;;1.75;1.50;;;;;19.51;62.13;101970.19;5064057;28;8826;-67
2023/06/27 01:26:34;;;;;;;;;2.75;2.75;;;;;19.48;62.22;101967.91;5063472;28;8903;-67
2023/06/27 01:29:01;;;;;;;;;2.00;2.00;;;;;19.49;62.11;101966.88;5062959;28;8918;-68
2023/06/27 01:31:53;;;;;;;;;3.00;2.00;;;;;19.48;62.09;101959.72;5064469;28;9547;-68
2023/06/27 01:34:38;;;;;;;;;1.00;1.00;;;;;19.46;62.35;101959.13;5051503;28;8832;-67
2023/06/27 01:37:19;;;;;;;;;1.00;1.00;;;;;19.45;62.28;101961.03;5062905;28;8826;-67
2023/06/27 01:40:07;;;;;;;;;2.00;2.00;;;;;19.43;62.50;101960.41;5062434;28;8840;-67
2023/06/27 01:42:41;;;;;;;;;2.00;2.00;;;;;19.43;62.44;101962.28;5041388;28;8830;-67
2023/06/27 01:45:09;;;;;;;;;6.00;6.00;;;;;19.42;62.53;101968.81;5042272;28;8820;-68
2023/06/27 01:47:39;;;;;;;;;2.25;2.25;;;;;19.41;62.46;101967.16;5050969;28;8818;-68
2023/06/27 01:50:08;;;;;;;;;1.00;1.00;;;;;19.39;62.67;101970.09;5035040;28;8968;-67
2023/06/27 01:52:35;;;;;;;;;1.50;1.50;;;;;19.37;62.68;101963.22;5045380;28;8857;-68
2023/06/27 01:55:03;;;;;;;;;3.00;2.50;;;;;19.36;62.85;101969.72;5043999;28;8867;-68
2023/06/27 01:57:32;;;;;;;;;2.25;1.75;;;;;19.33;62.67;101968.28;5034604;28;8920;-68
2023/06/27 01:59:59;;;;;;;;;1.75;1.75;;;;;19.33;62.98;101965.56;5046743;28;8870;-68
2023/06/27 02:02:25;;;;;;;;;2.00;2.00;;;;;19.31;62.93;101964.09;5049027;28;8930;-67
2023/06/27 02:04:52;;;;;;;;;2.00;2.00;;;;;19.30;63.29;101959.72;5043050;28;8832;-68
2023/06/27 02:07:18;;;;;;;;;2.75;2.25;;;;;19.28;62.98;101962.63;5043583;28;9525;-68
2023/06/27 02:09:45;;;;;;;;;3.00;3.00;;;;;19.26;63.20;101960.16;5049215;28;8826;-67
2023/06/27 02:12:11;;;;;;;;;2.00;2.00;;;;;19.24;63.26;101962.28;5044221;28;8860;-67
2023/06/27 02:14:38;;;;;;;;;3.00;3.00;;;;;19.23;63.27;101955.13;5050918;28;8834;-67
2023/06/27 02:17:05;;;;;;;;;1.25;1.25;;;;;19.22;63.29;101958.94;5051196;28;8810;-68
2023/06/27 02:19:31;;;;;;;;;1.00;1.00;;;;;19.21;63.18;101950.97;5049044;28;8838;-67
2023/06/27 02:21:58;;;;;;;;;2.00;2.00;;;;;19.21;63.36;101953.69;5049740;28;9571;-68
2023/06/27 02:24:24;;;;;;;;;3.00;3.00;;;;;19.19;63.30;101944.88;5050490;28;8850;-68
2023/06/27 02:26:51;;;;;;;;;2.25;2.25;;;;;19.17;63.26;101939.66;5047114;28;8860;-68
2023/06/27 02:29:17;;;;;;;;;2.00;2.00;;;;;19.16;63.44;101938.00;5046034;28;9939;-69
2023/06/27 02:31:44;;;;;;;;;2.25;2.25;;;;;19.15;63.26;101944.50;5045854;28;8848;-68
2023/06/27 02:34:10;;;;;;;;;1.50;1.50;;;;;19.13;63.50;101938.44;5028171;28;8853;-69
2023/06/27 02:36:37;;;;;;;;;6.25;3.75;;;;;19.11;63.59;101937.00;5046661;28;8830;-69
2023/06/27 02:39:03;;;;;;;;;3.00;2.75;;;;;19.08;63.46;101938.28;5051981;28;8818;-69
2023/06/27 02:41:32;;;;;;;;;5.50;3.75;;;;;19.07;63.62;101944.78;5045036;28;8841;-67
2023/06/27 02:44:01;;;;;;;;;2.00;1.50;;;;;19.06;63.61;101945.84;5048951;28;8837;-69
2023/06/27 02:46:28;;;;;;;;;2.50;2.25;;;;;19.04;63.17;101942.53;5047404;28;8830;-69
2023/06/27 02:48:54;;;;;;;;;3.50;3.25;;;;;19.02;63.79;101948.19;5051211;28;8838;-68
2023/06/27 02:51:21;;;;;;;;;2.00;2.00;;;;;19.02;63.73;101950.91;5050115;28;8857;-68
2023/06/27 02:53:47;;;;;;;;;3.00;3.00;;;;;19.01;63.72;101956.59;5046287;28;9627;-68
2023/06/27 02:56:14;;;;;;;;;3.00;2.50;;;;;19.00;63.72;101949.50;5048922;28;8865;-69
2023/06/27 02:58:40;;;;;;;;;1.50;1.50;;;;;18.98;63.81;101941.50;5051492;28;8826;-68
2023/06/27 03:01:07;;;;;;;;;1.75;1.75;;;;;18.99;63.60;101942.34;5043051;28;8838;-69
2023/06/27 03:03:38;;;;;;;;;3.00;1.00;;;;;18.98;63.73;101946.97;5030851;28;8976;-68
2023/06/27 03:06:08;;;;;;;;;2.25;2.25;;;;;18.95;63.78;101952.84;5045612;28;8841;-67
2023/06/27 03:08:39;;;;;;;;;1.25;0.25;;;;;18.95;63.70;101952.84;5033333;28;8841;-69
2023/06/27 03:11:06;;;;;;;;;3.50;2.25;;;;;18.94;63.66;101953.09;5064796;28;8829;-69
2023/06/27 03:13:33;;;;;;;;;2.75;2.75;;;;;18.92;63.71;101950.59;5044942;28;8877;-67
2023/06/27 03:16:00;;;;;;;;;1.00;1.00;;;;;18.90;63.74;101949.97;5051115;28;8935;-69
2023/06/27 03:18:28;;;;;;;;;3.50;3.00;;;;;18.88;63.75;101945.78;5033900;28;8828;-69
2023/06/27 03:20:56;;;;;;;;;1.75;1.75;;;;;18.85;63.77;101943.53;5040341;28;8879;-68
2023/06/27 03:23:23;;;;;;;;;2.00;2.00;;;;;18.83;64.16;101941.00;5044375;28;8868;-69
2023/06/27 03:25:49;;;;;;;;;2.50;2.50;;;;;18.82;64.01;101946.69;5038180;28;8841;-66
2023/06/27 03:28:16;;;;;;;;;2.00;2.00;;;;;18.81;63.89;101947.75;5048612;28;8826;-68
2023/06/27 03:30:49;;;;;;;;;3.50;3.50;;;;;18.80;64.24;101954.25;5048613;28;8926;-67
2023/06/27 03:33:16;;;;;;;;;2.75;1.00;;;;;18.78;64.30;101947.13;5047255;28;8830;-68
2023/06/27 03:35:44;;;;;;;;;2.00;2.00;;;;;18.78;64.21;101943.56;5040188;28;8918;-68
2023/06/27 03:38:11;;;;;;;;;1.25;1.25;;;;;18.76;64.30;101946.53;5051063;28;8834;-68
2023/06/27 03:40:37;;;;;;;;;4.25;3.25;;;;;18.74;64.30;101940.44;5049017;28;8837;-69
2023/06/27 03:43:04;;;;;;;;;2.75;1.75;;;;;18.75;64.25;101944.00;5040949;28;8852;-68
2023/06/27 03:45:30;;;;;;;;;1.25;1.00;;;;;18.75;64.25;101941.28;5044369;28;8830;-68
2023/06/27 03:47:57;;;;;;;;;1.50;1.50;;;;;18.74;64.34;101945.06;5030502;28;8844;-69
2023/06/27 03:50:25;;;;;;;;;3.50;2.00;;;;;18.74;64.16;101945.06;5043822;28;8868;-68
2023/06/27 03:52:52;;;;;;;;;1.25;1.25;;;;;18.75;64.27;101944.00;5045455;28;8849;-67
2023/06/27 03:55:18;;;;;;;;;3.00;2.00;;;;;18.74;64.24;101937.72;5043137;28;8876;-67
2023/06/27 03:57:49;;;;;;;;;3.25;2.00;;;;;18.76;64.01;101940.25;5042503;28;8830;-68
2023/06/27 04:00:16;;;;;;;;;1.50;1.50;;;;;18.75;64.14;101942.09;5048514;28;8838;-67
2023/06/27 04:02:43;;;;;;;;;1.50;1.50;;;;;18.76;64.05;101949.25;5050154;28;9591;-68
2023/06/27 04:05:11;;;;;;;;;1.50;1.00;;;;;18.76;63.98;101949.25;5046414;28;8816;-67
2023/06/27 04:07:40;;;;;;;;;1.25;1.25;;;;;18.76;63.93;101953.88;5047799;28;8845;-68
2023/06/27 04:10:08;;;;;;;;;1.25;1.25;;;;;18.84;64.28;101953.59;5043792;28;9554;-68
2023/06/27 04:12:34;;;;;;;;;1.00;1.00;;;;;18.94;63.70;101955.81;5044567;28;8846;-67
2023/06/27 04:15:01;;;;;;;;;2.00;2.00;;;;;18.98;63.08;101951.59;5042536;28;8986;-68
2023/06/27 04:17:28;;;;;;;;;2.00;2.00;;;;;18.98;62.72;101957.06;5047221;28;8872;-68
2023/06/27 04:19:55;;;;;;;;;0.75;0.75;;;;;18.97;62.63;101960.84;5043221;28;8826;-68
2023/06/27 04:22:21;;;;;;;;;1.75;1.00;;;;;18.95;62.36;101955.59;5048628;28;8850;-68
2023/06/27 04:24:49;;;;;;;;;2.00;2.00;;;;;18.93;62.30;101956.88;5029431;28;8851;-67
2023/06/27 04:27:16;;;;;;;;;1.00;1.00;;;;;18.94;62.14;101958.56;5045080;28;8826;-68
2023/06/27 04:29:42;;;;;;;;;0.25;0.25;;;;;18.94;61.87;101958.56;5047583;28;8877;-67
2023/06/27 04:32:09;;;;;;;;;0.50;0.50;;;;;18.92;61.57;101964.25;5047447;28;8903;-68
2023/06/27 04:34:36;;;;;;;;;0.25;0.00;;;;;18.92;61.43;101960.66;5049172;28;8826;-67
2023/06/27 04:37:04;;;;;;;;;0.50;0.50;;;;;18.92;61.33;101960.66;5042368;28;8814;-68
2023/06/27 04:39:30;;;;;;;;;1.75;1.00;;;;;18.91;61.00;101959.00;5044558;28;8830;-68
2023/06/27 04:41:58;;;;;;;;;0.75;0.75;;;;;18.92;60.96;101968.84;5049428;28;8876;-68
2023/06/27 04:44:24;;;;;;;;;1.25;1.00;;;;;18.92;60.73;101966.09;5048595;28;8926;-68
2023/06/27 04:46:51;;;;;;;;;1.25;1.25;;;;;18.91;60.77;101973.47;5038200;28;8842;-68
2023/06/27 04:49:17;;;;;;;;;2.00;1.00;;;;;18.90;60.59;101957.31;5049817;28;8829;-66
2023/06/27 04:51:44;;;;;;;;;1.75;1.00;;;;;18.91;60.50;101964.44;5045466;28;8833;-68
2023/06/27 04:54:10;;;;;;;;;1.00;1.00;;;;;18.91;60.34;101956.25;5051756;28;8899;-68
2023/06/27 04:56:37;;;;;;;;;1.75;1.00;;;;;18.89;60.29;101956.50;5052388;28;8825;-68
2023/06/27 04:59:03;;;;;;;;;0.00;0.00;;;;;18.89;60.57;101963.84;5056653;28;8841;-67
2023/06/27 05:01:31;;;;;;;;;1.00;1.00;;;;;18.91;60.42;101956.25;5047487;28;8830;-67
2023/06/27 05:04:04;;;;;;;;;1.00;1.00;;;;;18.91;60.12;101957.09;5044728;28;9567;-67
2023/06/27 05:06:34;;;;;;;;;1.00;1.00;;;;;18.93;60.19;101965.06;5039717;28;8885;-67
2023/06/27 05:09:03;;;;;;;;;1.00;1.00;;;;;18.94;60.02;101955.81;5043856;28;8834;-67
2023/06/27 05:11:30;;;;;;;;;0.50;0.50;;;;;18.96;59.92;101956.44;5055577;28;8848;-67
2023/06/27 05:13:56;;;;;;;;;3.50;1.75;;;;;18.97;59.88;101961.69;5041633;28;8831;-68
2023/06/27 05:16:23;;;;;;;;;1.50;1.00;;;;;18.97;59.32;101963.56;5054249;28;8850;-68
2023/06/27 05:18:53;;;;;;;;;1.75;1.75;;;;;18.98;59.10;101968.78;5053864;28;8985;-68
2023/06/27 05:21:20;;;;;;;;;0.50;0.50;;;;;19.00;58.78;101965.88;5035365;28;8869;-68
2023/06/27 05:23:47;;;;;;;;;2.25;1.75;;;;;19.01;58.61;101962.91;5050000;28;9551;-69
2023/06/27 05:26:13;;;;;;;;;1.75;1.00;;;;;19.02;58.27;101959.09;5043406;28;8919;-69
2023/06/27 05:28:40;;;;;;;;;1.50;1.50;;;;;19.03;58.13;101952.59;5044657;28;8830;-69
2023/06/27 05:31:06;;;;;;;;;1.75;1.25;;;;;19.07;58.07;101955.69;5047316;28;8840;-68
2023/06/27 05:33:33;;;;;;;;;2.00;2.00;;;;;19.07;57.94;101963.88;5054559;28;9577;-68
2023/06/27 05:36:00;;;;;;;;;0.50;0.50;;;;;19.12;58.40;101966.81;5039158;28;8833;-69
2023/06/27 05:38:26;;;;;;;;;1.00;1.00;;;;;19.20;58.53;101963.78;5039547;28;8852;-67
2023/06/27 05:40:53;;;;;;;;;1.00;1.00;;;;;19.26;58.34;101962.88;5059138;28;8847;-68
2023/06/27 05:43:19;;;;;;;;;1.00;1.00;;;;;19.30;58.19;101970.63;5048735;28;8831;-69
2023/06/27 05:45:46;;;;;;;;;1.00;1.00;;;;;19.34;57.82;101971.84;5058001;28;8876;-68
2023/06/27 05:48:14;;;;;;;;;0.50;0.50;;;;;19.38;57.50;101973.91;5033010;28;8837;-67
2023/06/27 05:50:42;;;;;;;;;1.00;1.00;;;;;19.46;57.45;101964.59;5033612;28;8896;-67
2023/06/27 05:53:08;;;;;;;;;2.00;1.00;;;;;19.57;57.35;101977.50;5046726;28;8838;-67
2023/06/27 05:55:35;;;;;;;;;0.75;0.75;;;;;19.70;57.04;101974.66;5043532;28;9075;-68
2023/06/27 05:58:01;;;;;;;;;1.50;0.25;;;;;19.85;56.45;101971.53;5047452;28;8877;-67
2023/06/27 06:00:28;;;;;;;;;1.00;1.00;;;;;19.92;56.14;101974.16;5059909;28;8827;-66
2023/06/27 06:02:54;;;;;;;;;2.00;1.00;;;;;19.97;56.14;101979.78;5052579;28;8856;-65
2023/06/27 06:05:21;;;;;;;;;0.75;0.75;;;;;19.99;56.29;101975.75;5047442;28;8951;-66
2023/06/27 06:07:48;;;;;;;;;0.25;0.25;;;;;20.02;55.91;101981.84;5038344;28;8832;-68
2023/06/27 06:10:14;;;;;;;;;0.75;0.75;;;;;20.00;55.67;101979.31;5047733;28;8860;-67
2023/06/27 06:12:43;;;;;;;;;0.50;0.50;;;;;19.98;55.55;101987.78;5040199;28;8858;-67
2023/06/27 06:15:09;;;;;;;;;0.75;0.75;;;;;19.98;55.21;101992.41;5042083;28;9567;-68
2023/06/27 06:17:36;;;;;;;;;1.50;1.00;;;;;19.94;55.10;101983.00;5033022;28;8874;-67
2023/06/27 06:20:11;;;;;;;;;1.50;1.50;;;;;19.92;54.94;101988.66;5048298;28;8878;-69
2023/06/27 06:22:38;;;;;;;;;1.00;1.00;;;;;19.92;55.09;101988.66;5045714;28;9570;-67
2023/06/27 06:25:05;;;;;;;;;1.00;1.00;;;;;19.90;55.59;101985.34;5040940;28;8979;-67
2023/06/27 06:27:32;;;;;;;;;0.50;0.50;;;;;19.92;55.51;101987.84;5049168;28;8842;-65
2023/06/27 06:29:59;;;;;;;;;1.00;1.00;;;;;19.90;55.06;101989.97;5052206;28;8941;-65
2023/06/27 06:32:25;;;;;;;;;3.00;0.75;;;;;19.85;54.77;101990.66;5033088;28;8832;-67
2023/06/27 06:34:52;;;;;;;;;1.00;1.00;;;;;19.88;55.41;102000.28;5032560;28;9596;-66
2023/06/27 06:37:18;;;;;;;;;0.50;0.50;;;;;19.91;54.36;101997.94;5021293;28;8849;-67
2023/06/27 06:39:45;;;;;;;;;1.50;1.00;;;;;19.94;54.21;102004.84;5046447;28;8935;-69
2023/06/27 06:42:11;;;;;;;;;2.25;2.25;;;;;19.97;54.42;102009.84;5051402;28;8841;-70
2023/06/27 06:44:38;;;;;;;;;0.75;0.75;;;;;19.97;54.10;102010.69;5051980;28;8818;-69
2023/06/27 06:47:07;;;;;;;;;1.00;1.00;;;;;20.00;53.72;102012.13;5050762;28;8837;-68
2023/06/27 06:49:34;;;;;;;;;0.00;0.00;;;;;20.01;53.11;102005.59;5049544;28;9493;-65
2023/06/27 06:52:00;;;;;;;;;1.00;0.00;;;;;20.04;52.74;102007.88;5049923;28;8826;-66
2023/06/27 06:54:27;;;;;;;;;0.50;0.50;;;;;20.06;52.65;102016.69;5051596;28;8844;-67
2023/06/27 06:56:53;;;;;;;;;1.75;1.75;;;;;20.06;52.38;102003.03;5051573;28;8830;-68
2023/06/27 06:59:20;;;;;;;;;0.75;0.75;;;;;20.08;52.22;102000.88;5049605;28;8916;-68
2023/06/27 07:01:46;;;;;;;;;0.75;0.75;;;;;20.10;51.68;101997.94;5048580;28;8915;-68
2023/06/27 07:04:13;;;;;;;;;1.75;1.75;;;;;20.09;50.55;102008.00;5043215;28;8940;-68
2023/06/27 07:06:39;;;;;;;;;1.50;1.00;;;;;20.12;51.07;102001.25;5051528;28;8848;-69
2023/06/27 07:09:06;;;;;;;;;0.00;0.00;;;;;20.20;51.45;101999.03;5051343;28;8940;-69
2023/06/27 07:11:32;;;;;;;;;0.50;0.50;;;;;20.29;51.55;101998.72;5050472;28;8854;-66
2023/06/27 07:13:59;;;;;;;;;1.00;1.00;;;;;20.28;51.69;102002.53;5038358;28;9560;-67
2023/06/27 07:16:26;;;;;;;;;0.25;0.25;;;;;20.29;52.00;102001.47;5044330;28;8826;-69
2023/06/27 07:18:52;;;;;;;;;0.00;0.00;;;;;20.27;51.68;102006.34;5046112;28;8862;-69
2023/06/27 07:21:19;;;;;;;;;2.75;1.00;;;;;20.20;51.63;102007.25;5045637;28;8905;-70
2023/06/27 07:23:45;;;;;;;;;0.00;0.00;;;;;20.15;52.02;102006.28;5044209;28;9013;-65
2023/06/27 07:26:12;;;;;;;;;1.25;1.25;;;;;20.15;52.27;102007.09;5039204;28;8865;-69
2023/06/27 07:28:38;;;;;;;;;0.25;0.00;;;;;20.19;52.54;102008.31;5043287;28;9528;-69
2023/06/27 07:31:05;;;;;;;;;0.25;0.00;;;;;20.24;52.61;101996.69;5041165;28;8840;-69
2023/06/27 07:33:31;;;;;;;;;1.00;0.00;;;;;20.31;52.03;102004.81;5049066;28;8895;-67
2023/06/27 07:35:58;;;;;;;;;1.00;1.00;;;;;20.32;51.13;102003.75;5050435;28;8923;-69
2023/06/27 07:38:24;;;;;;;;;1.00;1.00;;;;;20.31;51.22;101996.59;5048598;28;8861;-69
2023/06/27 07:40:51;;;;;;;;;1.00;1.00;;;;;20.34;51.29;101988.78;5038387;28;8876;-68
2023/06/27 07:43:21;;;;;;;;;0.00;0.00;;;;;20.36;50.90;101986.63;5049190;28;8903;-69
2023/06/27 07:45:48;;;;;;;;;1.25;1.25;;;;;20.34;49.94;101991.53;5047846;28;8814;-68
2023/06/27 07:48:16;;;;;;;;;0.00;0.00;;;;;20.30;50.02;101993.03;5048532;28;8852;-66
2023/06/27 07:50:42;;;;;;;;;1.00;1.00;;;;;20.41;50.37;101996.88;5043489;28;8946;-62
2023/06/27 07:53:09;;;;;;;;;0.75;0.75;;;;;20.61;50.51;101999.38;5041486;28;8924;-64
2023/06/27 07:55:35;;;;;;;;;1.00;1.00;;;;;20.76;49.17;101993.47;5043273;28;8830;-64
2023/06/27 07:58:02;;;;;;;;;6.50;3.75;;;;;20.90;50.19;101992.19;5041312;28;8854;-65
2023/06/27 08:00:29;;;;;;;;;9.50;5.00;;;;;21.08;51.63;102003.06;5041311;28;8846;-66
2023/06/27 08:02:55;;;;;;;;;3.75;3.75;;;;;21.14;50.44;102004.81;5045197;28;8854;-66
2023/06/27 08:05:22;;;;;;;;;3.25;2.25;;;;;21.12;49.18;102001.50;5047780;28;9628;-66
2023/06/27 08:07:48;;;;;;;;;3.75;2.50;;;;;21.14;50.31;102002.09;5044856;28;8867;-62
2023/06/27 08:10:15;;;;;;;;;1.25;1.25;;;;;21.16;51.34;102010.09;5046573;28;8956;-65
2023/06/27 08:12:41;;;;;;;;;2.00;1.00;;;;;21.21;51.92;102008.28;5042917;28;8964;-66
2023/06/27 08:15:08;;;;;;;;;1.50;0.75;;;;;21.25;53.93;101997.69;5045322;28;8858;-67
2023/06/27 08:17:35;;;;;;;;;0.25;0.25;;;;;21.31;53.20;102004.13;5045647;28;8829;-65
2023/06/27 08:20:02;;;;;;;;;1.00;1.00;;;;;21.33;52.68;102008.34;5049123;28;8859;-67
2023/06/27 08:22:28;;;;;;;;;2.00;2.00;;;;;21.33;52.58;102007.50;5049658;28;8960;-65
2023/06/27 08:24:55;;;;;;;;;1.25;1.25;;;;;21.31;53.28;102012.34;5049663;28;8862;-67
2023/06/27 08:27:22;;;;;;;;;0.25;0.25;;;;;21.37;53.52;102015.00;5048580;28;8820;-66
2023/06/27 08:29:48;;;;;;;;;0.25;0.25;;;;;21.39;53.49;102012.03;5042272;28;8837;-64
2023/06/27 08:32:15;;;;;;;;;1.25;1.25;;;;;21.41;53.45;102007.97;5046729;28;8872;-63
2023/06/27 08:34:42;;;;;;;;;1.00;0.00;;;;;21.45;52.91;102002.88;5044824;28;8842;-61
2023/06/27 08:37:09;;;;;;;;;0.25;0.25;;;;;21.52;53.91;101995.38;5037627;28;8832;-65
2023/06/27 08:39:36;;;;;;;;;2.00;1.00;;;;;21.51;52.33;102003.81;5042561;28;8836;-65
2023/06/27 08:42:03;;;;;;;;;1.75;0.00;;;;;21.48;53.51;101999.66;5027583;28;8848;-63
2023/06/27 08:44:30;;;;;;;;;0.00;0.00;;;;;21.51;54.74;102007.38;5041593;28;8806;-65
2023/06/27 08:47:05;;;;;;;;;1.50;1.50;;;;;21.58;54.23;102004.53;5046802;28;8934;-65
2023/06/27 08:49:34;;;;;;;;;0.00;0.00;;;;;21.62;54.05;102013.94;5043230;28;9585;-64
2023/06/27 08:52:02;;;;;;;;;39.00;25.00;;;;;21.69;55.19;102006.41;5050570;28;8826;-64
2023/06/27 08:54:34;;;;;;;;;54.33;37.33;;;;;21.69;53.12;102014.66;5045858;28;9000;-62
2023/06/27 08:57:02;;;;;;;;;23.00;17.00;;;;;21.58;52.46;102013.56;5053203;28;9355;-66
2023/06/27 08:59:32;;;;;;;;;9.75;5.00;;;;;21.60;52.97;102010.63;5051515;28;8814;-65
2023/06/27 09:02:01;;;;;;;;;2.75;2.00;;;;;21.64;54.53;102015.38;5044638;28;8829;-65
2023/06/27 09:04:28;;;;;;;;;4.00;2.00;;;;;21.69;53.63;102022.88;5053046;28;8941;-62
2023/06/27 09:06:55;;;;;;;;;0.50;0.50;;;;;21.68;51.25;102013.81;5050797;28;8965;-62
2023/06/27 09:09:22;;;;;;;;;1.50;1.25;;;;;21.71;51.05;102016.09;5046451;28;8875;-64
2023/06/27 09:11:50;;;;;;;;;2.00;2.00;;;;;21.79;50.25;102022.25;5053394;28;8934;-64
2023/06/27 09:14:17;;;;;;;;;1.00;1.00;;;;;21.86;51.09;102018.31;5050360;28;9007;-63
2023/06/27 09:16:43;;;;;;;;;0.50;0.50;;;;;21.89;49.59;102023.31;5052904;28;8810;-63
2023/06/27 09:19:11;;;;;;;;;1.00;0.00;;;;;21.88;49.44;102027.13;5051175;28;8948;-63
2023/06/27 09:21:39;;;;;;;;;1.25;0.00;;;;;21.88;49.72;102020.81;5041899;28;8848;-64
2023/06/27 09:24:06;;;;;;;;;0.50;0.00;;;;;21.83;48.53;102024.25;5048534;28;8850;-65
2023/06/27 09:26:33;;;;;;;;;0.75;0.75;;;;;21.77;48.39;102019.75;5046333;28;8853;-63
2023/06/27 09:28:59;;;;;;;;;2.00;2.00;;;;;21.75;49.24;102023.81;5050999;28;8833;-65
2023/06/27 09:31:26;;;;;;;;;0.25;0.25;;;;;21.73;49.30;102026.78;5052661;28;8857;-65
2023/06/27 09:34:04;;;;;;;;;1.25;0.50;;;;;21.69;48.02;102020.97;5050265;28;8844;-67
2023/06/27 09:36:36;;;;;;;;;1.00;1.00;;;;;21.44;46.25;102026.69;5052302;28;9309;-68
2023/06/27 09:39:08;;;;;;;;;0.25;0.25;;;;;21.27;46.86;102030.31;5051330;28;8825;-69
2023/06/27 09:41:42;;;;;;;;;1.00;0.00;;;;;21.13;46.74;102030.53;5047292;28;8810;-70
2023/06/27 09:44:12;;;;;;;;;1.00;0.00;;;;;21.06;47.03;102035.28;5051439;28;8848;-69
2023/06/27 09:46:38;;;;;;;;;1.50;0.50;;;;;20.97;46.80;102034.81;5043601;28;8829;-69
2023/06/27 09:49:06;;;;;;;;;0.00;0.00;;;;;20.92;46.88;102028.38;5032327;28;8906;-67
2023/06/27 09:51:33;;;;;;;;;0.75;0.75;;;;;20.87;47.21;102036.47;5048239;28;8857;-67
2023/06/27 09:53:59;;;;;;;;;1.00;1.00;;;;;20.85;47.21;102035.84;5040659;28;8922;-68
2023/06/27 09:56:31;;;;;;;;;1.50;0.25;;;;;20.86;47.04;102040.25;5044390;28;9535;-67
2023/06/27 09:59:09;;;;;;;;;0.00;0.00;;;;;20.86;47.02;102040.25;5041475;28;8996;-66
2023/06/27 10:01:50;;;;;;;;;0.00;0.00;;;;;20.86;47.40;102035.59;5051515;28;8853;-68
2023/06/27 10:04:18;;;;;;;;;0.75;0.75;;;;;20.89;47.65;102039.78;5045554;28;9764;-68
2023/06/27 10:06:44;;;;;;;;;2.00;0.00;;;;;20.85;46.82;102038.59;5049922;28;8853;-70
2023/06/27 10:09:11;;;;;;;;;1.50;0.25;;;;;20.82;46.94;102039.88;5048352;28;8860;-67
2023/06/27 10:11:39;;;;;;;;;1.25;0.00;;;;;20.81;47.41;102037.38;5043515;28;8961;-66
2023/06/27 10:14:07;;;;;;;;;0.00;0.00;;;;;20.82;47.45;102041.78;5050682;28;8814;-68
2023/06/27 10:16:34;;;;;;;;;0.00;0.00;;;;;20.82;47.75;102039.88;5052182;28;8829;-68
2023/06/27 10:19:03;;;;;;;;;2.00;0.25;;;;;20.87;47.91;102033.72;5052309;28;8822;-68
2023/06/27 10:21:30;;;;;;;;;0.00;0.00;;;;;20.89;47.75;102037.88;5050704;28;8834;-68
2023/06/27 10:24:00;;;;;;;;;0.25;0.25;;;;;20.91;47.58;102032.19;5050879;28;9598;-68
2023/06/27 10:26:28;;;;;;;;;0.00;0.00;;;;;20.92;47.45;102034.69;5043390;28;8829;-68
2023/06/27 10:28:54;;;;;;;;;1.00;1.00;;;;;20.98;47.10;102038.38;5041831;28;8885;-66
2023/06/27 10:31:42;;;;;;;;;1.00;1.00;;;;;21.04;47.75;102034.72;5051543;28;8908;-67
2023/06/27 10:34:16;;;;;;;;;0.50;0.50;;;;;21.02;46.96;102036.81;5048608;28;8832;-67
2023/06/27 10:36:54;;;;;;;;;1.00;1.00;;;;;21.02;47.32;102039.56;5051656;28;8866;-68
2023/06/27 10:39:31;;;;;;;;;0.00;0.00;;;;;21.10;47.92;102035.66;5046804;28;8880;-66
2023/06/27 10:42:06;;;;;;;;;0.50;0.50;;;;;21.23;47.85;102038.19;5049998;28;8895;-66
2023/06/27 10:45:04;;;;;;;;;1.00;1.00;;;;;21.30;47.13;102033.41;5043395;28;8852;-68
2023/06/27 10:47:38;;;;;;;;;0.25;0.25;;;;;21.36;46.89;102031.69;5043347;28;8822;-66
2023/06/27 10:50:10;;;;;;;;;0.00;0.00;;;;;21.34;46.94;102033.81;5047263;28;8838;-68
2023/06/27 10:52:38;;;;;;;;;0.50;0.50;;;;;21.22;46.00;102029.13;5050189;28;8915;-68
2023/06/27 10:55:14;;;;;;;;;0.25;0.25;;;;;21.19;47.04;102042.47;5049095;28;8846;-68
2023/06/27 10:57:43;;;;;;;;;1.00;1.00;;;;;21.18;46.77;102027.94;5051525;28;8814;-68
2023/06/27 11:00:14;;;;;;;;;1.00;0.00;;;;;21.29;47.09;102034.50;5046654;28;8960;-67
2023/06/27 11:02:45;;;;;;;;;2.25;0.00;;;;;21.35;47.04;102041.81;5045898;28;8944;-67
2023/06/27 11:05:16;;;;;;;;;0.00;0.00;;;;;21.34;46.61;102045.59;5051269;28;8895;-67
2023/06/27 11:07:54;;;;;;;;;0.00;0.00;;;;;21.38;47.00;102040.50;5050444;28;8852;-66
2023/06/27 11:10:26;;;;;;;;;2.00;1.00;;;;;21.38;46.74;102035.84;5051262;28;8920;-64
2023/06/27 11:13:12;;;;;;;;;0.00;0.00;;;;;21.40;45.83;102041.09;5046169;28;8846;-67
2023/06/27 11:15:39;;;;;;;;;0.50;0.50;;;;;21.43;46.21;102035.13;5045010;28;8943;-67
2023/06/27 11:18:06;;;;;;;;;1.25;0.25;;;;;21.41;45.94;102031.81;5048598;28;8845;-68
2023/06/27 11:20:35;;;;;;;;;2.25;1.00;;;;;21.47;45.98;102039.06;5049511;28;8818;-68
2023/06/27 11:23:03;;;;;;;;;1.25;0.75;;;;;21.45;45.88;102044.78;5044749;28;8856;-66
2023/06/27 11:25:42;;;;;;;;;0.75;0.75;;;;;21.57;46.17;102043.97;5051080;28;8818;-68
2023/06/27 11:28:15;;;;;;;;;1.50;1.00;;;;;21.64;45.78;102041.94;5051078;28;8832;-68
2023/06/27 11:30:43;;;;;;;;;0.50;0.50;;;;;21.62;44.83;102036.69;5038429;28;8849;-69
2023/06/27 11:33:12;;;;;;;;;0.00;0.00;;;;;21.59;45.53;102034.44;5048354;28;8822;-68
2023/06/27 11:35:40;;;;;;;;;0.00;0.00;;;;;21.66;45.31;102031.56;5038460;28;8849;-68
2023/06/27 11:38:08;;;;;;;;;0.00;0.00;;;;;21.73;45.35;102029.53;5039487;28;8840;-69
2023/06/27 11:40:35;;;;;;;;;1.00;1.00;;;;;21.77;45.26;102029.91;5049156;28;8832;-67
2023/06/27 11:43:06;;;;;;;;;0.75;0.75;;;;;21.84;45.01;102034.19;5048483;28;9620;-68
2023/06/27 11:45:34;;;;;;;;;0.00;0.00;;;;;21.92;44.95;102039.28;5041836;28;8870;-66
2023/06/27 11:48:01;;;;;;;;;1.00;1.00;;;;;21.88;44.38;102040.84;5031040;28;8987;-68
2023/06/27 11:50:28;;;;;;;;;1.00;1.00;;;;;21.92;44.17;102038.47;5031068;28;8830;-68
2023/06/27 11:52:56;;;;;;;;;0.50;0.50;;;;;22.00;44.05;102032.59;5041776;28;9692;-68
2023/06/27 11:55:23;;;;;;;;;0.00;0.00;;;;;22.03;43.59;102039.50;5051237;28;8832;-66